sensor_id;sensor_type;location;lat;lon;timestamp;temperature;humidity
72355;SHT30;60314;55.040;73.076;2022-12-07T00:01:26;-15.71;68.78
72355;SHT30;60314;55.040;73.076;2022-12-07T00:03:55;-15.71;68.40
72355;SHT30;60314;55.040;73.076;2022-12-07T00:06:26;-15.70;68.50
72355;SHT30;60314;55.040;73.076;2022-12-07T00:08:53;-15.67;68.50
72355;SHT30;60314;55.040;73.076;2022-12-07T00:11:20;-15.66;68.43
72355;SHT30;60314;55.040;73.076;2022-12-07T00:13:51;-15.63;68.39
72355;SHT30;60314;55.040;73.076;2022-12-07T00:16:24;-15.64;68.24
72355;SHT30;60314;55.040;73.076;2022-12-07T00:18:51;-15.66;68.39
72355;SHT30;60314;55.040;73.076;2022-12-07T00:21:28;-15.64;68.39
72355;SHT30;60314;55.040;73.076;2022-12-07T00:23:56;-15.74;68.70
72355;SHT30;60314;55.040;73.076;2022-12-07T00:26:31;-15.68;69.15
72355;SHT30;60314;55.040;73.076;2022-12-07T00:29:05;-15.67;68.79
72355;SHT30;60314;55.040;73.076;2022-12-07T00:31:34;-15.59;69.04
72355;SHT30;60314;55.040;73.076;2022-12-07T00:34:14;-15.57;69.21
72355;SHT30;60314;55.040;73.076;2022-12-07T00:36:41;-15.51;69.18
72355;SHT30;60314;55.040;73.076;2022-12-07T00:39:18;-15.50;69.06
72355;SHT30;60314;55.040;73.076;2022-12-07T00:41:44;-15.50;68.81
72355;SHT30;60314;55.040;73.076;2022-12-07T00:44:11;-15.47;68.49
72355;SHT30;60314;55.040;73.076;2022-12-07T00:46:37;-15.47;68.47
72355;SHT30;60314;55.040;73.076;2022-12-07T00:49:09;-15.44;68.84
72355;SHT30;60314;55.040;73.076;2022-12-07T00:51:35;-15.42;68.80
72355;SHT30;60314;55.040;73.076;2022-12-07T00:54:02;-15.39;68.52
72355;SHT30;60314;55.040;73.076;2022-12-07T00:56:29;-15.39;68.43
72355;SHT30;60314;55.040;73.076;2022-12-07T00:59:05;-15.40;68.62
72355;SHT30;60314;55.040;73.076;2022-12-07T01:01:34;-15.35;68.82
72355;SHT30;60314;55.040;73.076;2022-12-07T01:04:02;-15.30;68.53
72355;SHT30;60314;55.040;73.076;2022-12-07T01:06:29;-15.33;68.35
72355;SHT30;60314;55.040;73.076;2022-12-07T01:08:56;-15.33;68.42
72355;SHT30;60314;55.040;73.076;2022-12-07T01:11:26;-15.35;68.85
72355;SHT30;60314;55.040;73.076;2022-12-07T01:13:54;-15.39;69.00
72355;SHT30;60314;55.040;73.076;2022-12-07T01:16:26;-15.36;68.85
72355;SHT30;60314;55.040;73.076;2022-12-07T01:18:53;-15.32;68.97
72355;SHT30;60314;55.040;73.076;2022-12-07T01:21:23;-15.40;68.80
72355;SHT30;60314;55.040;73.076;2022-12-07T01:23:50;-15.37;68.98
72355;SHT30;60314;55.040;73.076;2022-12-07T01:26:22;-15.37;68.78
72355;SHT30;60314;55.040;73.076;2022-12-07T01:28:49;-15.33;69.00
72355;SHT30;60314;55.040;73.076;2022-12-07T01:31:23;-15.29;68.67
72355;SHT30;60314;55.040;73.076;2022-12-07T01:33:52;-15.30;68.91
72355;SHT30;60314;55.040;73.076;2022-12-07T01:36:22;-15.35;68.73
72355;SHT30;60314;55.040;73.076;2022-12-07T01:38:51;-15.32;69.12
72355;SHT30;60314;55.040;73.076;2022-12-07T01:41:20;-15.27;68.87
72355;SHT30;60314;55.040;73.076;2022-12-07T01:44:16;-15.25;68.69
72355;SHT30;60314;55.040;73.076;2022-12-07T01:46:54;-15.20;68.48
72355;SHT30;60314;55.040;73.076;2022-12-07T01:49:40;-15.16;68.61
72355;SHT30;60314;55.040;73.076;2022-12-07T01:52:26;-15.22;68.28
72355;SHT30;60314;55.040;73.076;2022-12-07T01:55:00;-15.22;68.17
72355;SHT30;60314;55.040;73.076;2022-12-07T01:57:28;-15.29;68.33
72355;SHT30;60314;55.040;73.076;2022-12-07T01:59:55;-15.29;68.50
72355;SHT30;60314;55.040;73.076;2022-12-07T02:02:38;-15.29;68.71
72355;SHT30;60314;55.040;73.076;2022-12-07T02:05:06;-15.33;68.40
72355;SHT30;60314;55.040;73.076;2022-12-07T02:07:34;-15.37;68.69
72355;SHT30;60314;55.040;73.076;2022-12-07T02:10:23;-15.42;68.56
72355;SHT30;60314;55.040;73.076;2022-12-07T02:13:05;-15.43;68.58
72355;SHT30;60314;55.040;73.076;2022-12-07T02:16:12;-15.40;68.75
72355;SHT30;60314;55.040;73.076;2022-12-07T02:26:27;-15.47;68.95
72355;SHT30;60314;55.040;73.076;2022-12-07T02:32:23;-15.44;68.66
72355;SHT30;60314;55.040;73.076;2022-12-07T02:34:58;-15.42;68.87
72355;SHT30;60314;55.040;73.076;2022-12-07T02:38:07;-15.37;68.44
72355;SHT30;60314;55.040;73.076;2022-12-07T02:40:48;-15.36;68.45
72355;SHT30;60314;55.040;73.076;2022-12-07T02:43:31;-15.40;68.43
72355;SHT30;60314;55.040;73.076;2022-12-07T02:46:05;-15.44;68.28
72355;SHT30;60314;55.040;73.076;2022-12-07T02:48:34;-15.42;68.64
72355;SHT30;60314;55.040;73.076;2022-12-07T02:51:07;-15.39;68.57
72355;SHT30;60314;55.040;73.076;2022-12-07T02:53:41;-15.40;68.22
72355;SHT30;60314;55.040;73.076;2022-12-07T03:10:48;-15.56;68.63
72355;SHT30;60314;55.040;73.076;2022-12-07T03:13:32;-15.54;68.49
72355;SHT30;60314;55.040;73.076;2022-12-07T03:16:36;-15.66;68.73
72355;SHT30;60314;55.040;73.076;2022-12-07T03:19:26;-15.61;69.15
72355;SHT30;60314;55.040;73.076;2022-12-07T03:22:00;-15.61;69.02
72355;SHT30;60314;55.040;73.076;2022-12-07T03:24:43;-15.61;69.04
72355;SHT30;60314;55.040;73.076;2022-12-07T03:27:18;-15.68;69.12
72355;SHT30;60314;55.040;73.076;2022-12-07T03:30:05;-15.71;69.33
72355;SHT30;60314;55.040;73.076;2022-12-07T03:41:29;-15.98;70.62
72355;SHT30;60314;55.040;73.076;2022-12-07T03:43:57;-16.01;70.96
72355;SHT30;60314;55.040;73.076;2022-12-07T03:46:51;-16.05;71.03
72355;SHT30;60314;55.040;73.076;2022-12-07T03:52:33;-16.04;71.07
72355;SHT30;60314;55.040;73.076;2022-12-07T03:55:19;-16.05;71.59
72355;SHT30;60314;55.040;73.076;2022-12-07T03:57:49;-16.06;71.95
72355;SHT30;60314;55.040;73.076;2022-12-07T04:00:22;-16.04;72.16
72355;SHT30;60314;55.040;73.076;2022-12-07T04:03:01;-15.91;71.95
72355;SHT30;60314;55.040;73.076;2022-12-07T04:05:34;-15.97;71.35
72355;SHT30;60314;55.040;73.076;2022-12-07T04:08:05;-15.94;71.50
72355;SHT30;60314;55.040;73.076;2022-12-07T04:10:32;-15.91;71.53
72355;SHT30;60314;55.040;73.076;2022-12-07T04:12:59;-15.94;71.39
72355;SHT30;60314;55.040;73.076;2022-12-07T04:15:25;-15.90;71.28
72355;SHT30;60314;55.040;73.076;2022-12-07T04:17:56;-15.87;71.01
72355;SHT30;60314;55.040;73.076;2022-12-07T04:20:24;-15.92;70.86
72355;SHT30;60314;55.040;73.076;2022-12-07T04:22:56;-15.94;70.98
72355;SHT30;60314;55.040;73.076;2022-12-07T04:25:22;-15.92;70.88
72355;SHT30;60314;55.040;73.076;2022-12-07T04:27:56;-15.94;70.77
72355;SHT30;60314;55.040;73.076;2022-12-07T04:30:22;-15.87;70.69
72355;SHT30;60314;55.040;73.076;2022-12-07T04:32:48;-15.88;70.60
72355;SHT30;60314;55.040;73.076;2022-12-07T04:35:25;-15.87;70.47
72355;SHT30;60314;55.040;73.076;2022-12-07T04:37:52;-15.87;70.24
72355;SHT30;60314;55.040;73.076;2022-12-07T04:40:18;-15.82;70.26
72355;SHT30;60314;55.040;73.076;2022-12-07T04:42:44;-15.77;70.01
72355;SHT30;60314;55.040;73.076;2022-12-07T04:45:11;-15.74;69.96
72355;SHT30;60314;55.040;73.076;2022-12-07T04:47:38;-15.71;69.75
72355;SHT30;60314;55.040;73.076;2022-12-07T04:50:04;-15.64;69.13
72355;SHT30;60314;55.040;73.076;2022-12-07T04:52:31;-15.57;69.13
72355;SHT30;60314;55.040;73.076;2022-12-07T04:54:58;-15.51;69.04
72355;SHT30;60314;55.040;73.076;2022-12-07T04:57:24;-15.53;68.94
72355;SHT30;60314;55.040;73.076;2022-12-07T04:59:51;-15.47;69.34
72355;SHT30;60314;55.040;73.076;2022-12-07T05:02:17;-15.43;69.21
72355;SHT30;60314;55.040;73.076;2022-12-07T05:04:43;-15.46;69.75
72355;SHT30;60314;55.040;73.076;2022-12-07T05:07:10;-15.27;70.17
72355;SHT30;60314;55.040;73.076;2022-12-07T05:09:41;-15.20;69.88
72355;SHT30;60314;55.040;73.076;2022-12-07T05:12:07;-15.12;70.09
72355;SHT30;60314;55.040;73.076;2022-12-07T05:14:34;-15.09;70.28
72355;SHT30;60314;55.040;73.076;2022-12-07T05:17:00;-15.05;70.06
72355;SHT30;60314;55.040;73.076;2022-12-07T05:19:27;-14.98;70.02
72355;SHT30;60314;55.040;73.076;2022-12-07T05:21:53;-14.92;69.62
72355;SHT30;60314;55.040;73.076;2022-12-07T05:24:20;-14.81;69.40
72355;SHT30;60314;55.040;73.076;2022-12-07T05:26:46;-14.74;69.09
72355;SHT30;60314;55.040;73.076;2022-12-07T05:29:15;-14.73;69.22
72355;SHT30;60314;55.040;73.076;2022-12-07T05:31:42;-14.67;69.10
72355;SHT30;60314;55.040;73.076;2022-12-07T05:34:19;-14.61;69.15
72355;SHT30;60314;55.040;73.076;2022-12-07T05:36:45;-14.50;68.88
72355;SHT30;60314;55.040;73.076;2022-12-07T05:39:13;-14.44;68.81
72355;SHT30;60314;55.040;73.076;2022-12-07T05:41:40;-14.52;68.65
72355;SHT30;60314;55.040;73.076;2022-12-07T05:44:24;-14.52;68.97
72355;SHT30;60314;55.040;73.076;2022-12-07T05:46:51;-14.53;68.95
72355;SHT30;60314;55.040;73.076;2022-12-07T05:49:17;-14.57;69.10
72355;SHT30;60314;55.040;73.076;2022-12-07T05:51:44;-14.56;69.10
72355;SHT30;60314;55.040;73.076;2022-12-07T05:54:10;-14.57;69.14
72355;SHT30;60314;55.040;73.076;2022-12-07T05:56:37;-14.63;69.19
72355;SHT30;60314;55.040;73.076;2022-12-07T05:59:05;-14.59;69.31
72355;SHT30;60314;55.040;73.076;2022-12-07T06:02:00;-14.60;69.61
72355;SHT30;60314;55.040;73.076;2022-12-07T06:04:29;-14.54;69.80
72355;SHT30;60314;55.040;73.076;2022-12-07T06:06:56;-14.44;69.74
72355;SHT30;60314;55.040;73.076;2022-12-07T06:09:24;-14.42;69.54
72355;SHT30;60314;55.040;73.076;2022-12-07T06:11:51;-14.47;69.37
72355;SHT30;60314;55.040;73.076;2022-12-07T06:14:37;-14.49;69.44
72355;SHT30;60314;55.040;73.076;2022-12-07T06:17:04;-14.36;69.60
72355;SHT30;60314;55.040;73.076;2022-12-07T06:19:30;-14.33;69.40
72355;SHT30;60314;55.040;73.076;2022-12-07T06:21:57;-14.23;69.30
72355;SHT30;60314;55.040;73.076;2022-12-07T06:24:24;-14.22;68.87
72355;SHT30;60314;55.040;73.076;2022-12-07T06:26:50;-14.26;69.24
72355;SHT30;60314;55.040;73.076;2022-12-07T06:29:17;-14.26;69.45
72355;SHT30;60314;55.040;73.076;2022-12-07T06:31:44;-14.12;69.41
72355;SHT30;60314;55.040;73.076;2022-12-07T06:34:13;-13.96;69.01
72355;SHT30;60314;55.040;73.076;2022-12-07T06:36:40;-13.93;68.61
72355;SHT30;60314;55.040;73.076;2022-12-07T06:39:07;-13.83;68.85
72355;SHT30;60314;55.040;73.076;2022-12-07T06:41:36;-13.77;68.21
72355;SHT30;60314;55.040;73.076;2022-12-07T06:44:04;-13.75;68.23
72355;SHT30;60314;55.040;73.076;2022-12-07T06:46:30;-13.62;68.00
72355;SHT30;60314;55.040;73.076;2022-12-07T06:48:57;-13.58;67.63
72355;SHT30;60314;55.040;73.076;2022-12-07T06:51:24;-13.58;67.09
72355;SHT30;60314;55.040;73.076;2022-12-07T06:53:50;-13.58;67.02
72355;SHT30;60314;55.040;73.076;2022-12-07T06:56:17;-13.51;67.05
72355;SHT30;60314;55.040;73.076;2022-12-07T06:58:43;-13.67;65.88
72355;SHT30;60314;55.040;73.076;2022-12-07T07:01:20;-13.71;65.39
72355;SHT30;60314;55.040;73.076;2022-12-07T07:03:47;-13.70;64.74
72355;SHT30;60314;55.040;73.076;2022-12-07T07:06:13;-13.81;64.45
72355;SHT30;60314;55.040;73.076;2022-12-07T07:08:40;-13.82;64.41
72355;SHT30;60314;55.040;73.076;2022-12-07T07:11:08;-13.74;63.98
72355;SHT30;60314;55.040;73.076;2022-12-07T07:13:34;-13.77;63.37
72355;SHT30;60314;55.040;73.076;2022-12-07T07:16:01;-13.67;63.77
72355;SHT30;60314;55.040;73.076;2022-12-07T07:18:28;-13.65;63.82
72355;SHT30;60314;55.040;73.076;2022-12-07T07:20:55;-13.58;63.38
72355;SHT30;60314;55.040;73.076;2022-12-07T07:23:22;-13.57;62.66
72355;SHT30;60314;55.040;73.076;2022-12-07T07:25:48;-13.58;62.45
72355;SHT30;60314;55.040;73.076;2022-12-07T07:28:15;-13.47;62.75
72355;SHT30;60314;55.040;73.076;2022-12-07T07:30:42;-13.33;62.39
72355;SHT30;60314;55.040;73.076;2022-12-07T07:33:09;-13.22;61.84
72355;SHT30;60314;55.040;73.076;2022-12-07T07:35:36;-13.13;61.75
72355;SHT30;60314;55.040;73.076;2022-12-07T07:38:03;-13.08;62.15
72355;SHT30;60314;55.040;73.076;2022-12-07T07:40:30;-13.02;61.84
72355;SHT30;60314;55.040;73.076;2022-12-07T07:43:06;-12.95;61.86
72355;SHT30;60314;55.040;73.076;2022-12-07T07:45:44;-12.91;61.57
72355;SHT30;60314;55.040;73.076;2022-12-07T07:48:10;-12.89;61.41
72355;SHT30;60314;55.040;73.076;2022-12-07T07:50:36;-12.85;61.76
72355;SHT30;60314;55.040;73.076;2022-12-07T07:53:03;-12.88;62.09
72355;SHT30;60314;55.040;73.076;2022-12-07T07:55:29;-12.85;61.75
72355;SHT30;60314;55.040;73.076;2022-12-07T07:57:56;-12.81;62.10
72355;SHT30;60314;55.040;73.076;2022-12-07T08:00:22;-12.92;61.34
72355;SHT30;60314;55.040;73.076;2022-12-07T08:02:49;-12.99;61.54
72355;SHT30;60314;55.040;73.076;2022-12-07T08:05:15;-12.99;61.85
72355;SHT30;60314;55.040;73.076;2022-12-07T08:07:43;-12.98;61.82
72355;SHT30;60314;55.040;73.076;2022-12-07T08:10:11;-12.92;61.78
72355;SHT30;60314;55.040;73.076;2022-12-07T08:12:39;-12.93;61.98
72355;SHT30;60314;55.040;73.076;2022-12-07T08:15:30;-12.89;61.98
72355;SHT30;60314;55.040;73.076;2022-12-07T08:17:57;-12.91;62.00
72355;SHT30;60314;55.040;73.076;2022-12-07T08:20:24;-12.89;62.48
72355;SHT30;60314;55.040;73.076;2022-12-07T08:22:51;-12.81;62.73
72355;SHT30;60314;55.040;73.076;2022-12-07T08:25:28;-12.81;62.70
72355;SHT30;60314;55.040;73.076;2022-12-07T08:27:54;-12.86;62.66
72355;SHT30;60314;55.040;73.076;2022-12-07T08:30:21;-12.91;62.39
72355;SHT30;60314;55.040;73.076;2022-12-07T08:32:54;-12.93;62.88
72355;SHT30;60314;55.040;73.076;2022-12-07T08:35:21;-12.91;63.36
72355;SHT30;60314;55.040;73.076;2022-12-07T08:37:47;-12.96;63.33
72355;SHT30;60314;55.040;73.076;2022-12-07T08:40:14;-13.02;64.06
72355;SHT30;60314;55.040;73.076;2022-12-07T08:42:51;-12.95;64.11
72355;SHT30;60314;55.040;73.076;2022-12-07T08:45:28;-12.99;63.94
72355;SHT30;60314;55.040;73.076;2022-12-07T08:48:04;-13.08;64.26
72355;SHT30;60314;55.040;73.076;2022-12-07T08:50:32;-12.99;64.40
72355;SHT30;60314;55.040;73.076;2022-12-07T08:53:00;-12.99;64.39
72355;SHT30;60314;55.040;73.076;2022-12-07T08:55:27;-12.96;64.72
72355;SHT30;60314;55.040;73.076;2022-12-07T08:58:04;-12.99;64.90
72355;SHT30;60314;55.040;73.076;2022-12-07T09:00:37;-12.92;64.81
72355;SHT30;60314;55.040;73.076;2022-12-07T09:03:09;-12.89;64.73
72355;SHT30;60314;55.040;73.076;2022-12-07T09:05:35;-12.88;64.57
72355;SHT30;60314;55.040;73.076;2022-12-07T09:08:02;-12.85;64.34
72355;SHT30;60314;55.040;73.076;2022-12-07T09:10:29;-12.92;64.36
72355;SHT30;60314;55.040;73.076;2022-12-07T09:12:55;-12.89;64.56
72355;SHT30;60314;55.040;73.076;2022-12-07T09:15:28;-12.93;64.44
72355;SHT30;60314;55.040;73.076;2022-12-07T09:17:55;-13.02;64.44
72355;SHT30;60314;55.040;73.076;2022-12-07T09:20:21;-12.96;64.39
72355;SHT30;60314;55.040;73.076;2022-12-07T09:22:47;-13.02;64.67
72355;SHT30;60314;55.040;73.076;2022-12-07T09:25:14;-12.99;65.17
72355;SHT30;60314;55.040;73.076;2022-12-07T09:27:46;-13.08;65.32
72355;SHT30;60314;55.040;73.076;2022-12-07T09:30:12;-13.17;65.18
72355;SHT30;60314;55.040;73.076;2022-12-07T09:32:49;-13.15;65.79
72355;SHT30;60314;55.040;73.076;2022-12-07T09:35:20;-13.20;66.16
72355;SHT30;60314;55.040;73.076;2022-12-07T09:37:47;-13.29;66.47
72355;SHT30;60314;55.040;73.076;2022-12-07T09:40:14;-13.24;66.57
72355;SHT30;60314;55.040;73.076;2022-12-07T09:42:49;-13.33;66.20
72355;SHT30;60314;55.040;73.076;2022-12-07T09:45:22;-13.23;66.59
72355;SHT30;60314;55.040;73.076;2022-12-07T09:47:49;-13.12;66.62
72355;SHT30;60314;55.040;73.076;2022-12-07T09:50:27;-13.06;66.47
72355;SHT30;60314;55.040;73.076;2022-12-07T09:53:03;-13.10;66.50
72355;SHT30;60314;55.040;73.076;2022-12-07T09:55:42;-13.22;66.36
72355;SHT30;60314;55.040;73.076;2022-12-07T09:58:22;-13.27;66.83
72355;SHT30;60314;55.040;73.076;2022-12-07T10:03:52;-13.33;67.05
72355;SHT30;60314;55.040;73.076;2022-12-07T10:06:19;-13.34;67.32
72355;SHT30;60314;55.040;73.076;2022-12-07T10:08:46;-13.31;67.74
72355;SHT30;60314;55.040;73.076;2022-12-07T10:11:13;-13.36;67.81
72355;SHT30;60314;55.040;73.076;2022-12-07T10:13:43;-13.48;67.96
72355;SHT30;60314;55.040;73.076;2022-12-07T10:18:52;-13.51;68.44
72355;SHT30;60314;55.040;73.076;2022-12-07T10:21:29;-13.57;68.66
72355;SHT30;60314;55.040;73.076;2022-12-07T10:26:46;-13.62;68.75
72355;SHT30;60314;55.040;73.076;2022-12-07T10:29:19;-13.71;69.18
72355;SHT30;60314;55.040;73.076;2022-12-07T10:31:54;-13.68;69.15
72355;SHT30;60314;55.040;73.076;2022-12-07T10:34:36;-13.72;68.89
72355;SHT30;60314;55.040;73.076;2022-12-07T10:37:15;-13.77;68.78
72355;SHT30;60314;55.040;73.076;2022-12-07T10:39:50;-13.83;68.80
72355;SHT30;60314;55.040;73.076;2022-12-07T10:42:23;-13.89;68.87
72355;SHT30;60314;55.040;73.076;2022-12-07T10:47:48;-14.11;68.99
72355;SHT30;60314;55.040;73.076;2022-12-07T11:04:40;-14.32;69.54
72355;SHT30;60314;55.040;73.076;2022-12-07T11:07:43;-14.40;69.83
72355;SHT30;60314;55.040;73.076;2022-12-07T11:13:26;-14.30;69.56
72355;SHT30;60314;55.040;73.076;2022-12-07T11:22:12;-14.40;69.97
72355;SHT30;60314;55.040;73.076;2022-12-07T11:33:44;-14.60;70.92
72355;SHT30;60314;55.040;73.076;2022-12-07T11:37:03;-14.61;71.05
72355;SHT30;60314;55.040;73.076;2022-12-07T11:41:54;-14.70;70.90
72355;SHT30;60314;55.040;73.076;2022-12-07T11:47:09;-14.84;71.41
72355;SHT30;60314;55.040;73.076;2022-12-07T11:49:51;-14.83;71.45
72355;SHT30;60314;55.040;73.076;2022-12-07T11:58:20;-14.75;70.73
72355;SHT30;60314;55.040;73.076;2022-12-07T12:00:52;-14.84;70.59
72355;SHT30;60314;55.040;73.076;2022-12-07T12:03:31;-14.94;70.66
72355;SHT30;60314;55.040;73.076;2022-12-07T12:05:59;-15.04;70.65
72355;SHT30;60314;55.040;73.076;2022-12-07T12:19:25;-15.23;70.76
72355;SHT30;60314;55.040;73.076;2022-12-07T12:22:37;-15.18;70.56
72355;SHT30;60314;55.040;73.076;2022-12-07T12:24:56;-15.19;70.40
72355;SHT30;60314;55.040;73.076;2022-12-07T12:27:34;-15.26;70.39
72355;SHT30;60314;55.040;73.076;2022-12-07T12:30:05;-15.40;70.72
72355;SHT30;60314;55.040;73.076;2022-12-07T12:37:45;-15.51;71.44
72355;SHT30;60314;55.040;73.076;2022-12-07T12:42:45;-15.60;71.42
72355;SHT30;60314;55.040;73.076;2022-12-07T12:45:27;-15.68;71.34
72355;SHT30;60314;55.040;73.076;2022-12-07T12:48:01;-15.73;71.13
72355;SHT30;60314;55.040;73.076;2022-12-07T12:50:37;-15.81;71.22
72355;SHT30;60314;55.040;73.076;2022-12-07T12:53:19;-15.95;71.26
72355;SHT30;60314;55.040;73.076;2022-12-07T12:58:41;-16.11;71.22
72355;SHT30;60314;55.040;73.076;2022-12-07T13:01:40;-16.23;71.22
72355;SHT30;60314;55.040;73.076;2022-12-07T13:04:18;-16.26;71.20
72355;SHT30;60314;55.040;73.076;2022-12-07T13:06:58;-16.33;71.38
72355;SHT30;60314;55.040;73.076;2022-12-07T13:09:30;-16.43;71.31
72355;SHT30;60314;55.040;73.076;2022-12-07T13:12:04;-16.44;71.10
72355;SHT30;60314;55.040;73.076;2022-12-07T13:20:07;-16.72;70.68
72355;SHT30;60314;55.040;73.076;2022-12-07T13:22:43;-16.73;70.51
72355;SHT30;60314;55.040;73.076;2022-12-07T13:28:23;-16.93;70.73
72355;SHT30;60314;55.040;73.076;2022-12-07T13:31:28;-17.05;70.62
72355;SHT30;60314;55.040;73.076;2022-12-07T13:33:56;-17.12;70.96
72355;SHT30;60314;55.040;73.076;2022-12-07T13:36:38;-17.25;70.99
72355;SHT30;60314;55.040;73.076;2022-12-07T13:41:42;-17.28;70.68
72355;SHT30;60314;55.040;73.076;2022-12-07T13:44:11;-17.31;70.62
72355;SHT30;60314;55.040;73.076;2022-12-07T13:49:29;-17.45;70.79
72355;SHT30;60314;55.040;73.076;2022-12-07T13:52:29;-17.56;70.79
72355;SHT30;60314;55.040;73.076;2022-12-07T13:55:13;-17.52;70.88
72355;SHT30;60314;55.040;73.076;2022-12-07T13:57:40;-17.50;70.71
72355;SHT30;60314;55.040;73.076;2022-12-07T14:00:16;-17.52;70.77
72355;SHT30;60314;55.040;73.076;2022-12-07T14:02:59;-17.59;70.80
72355;SHT30;60314;55.040;73.076;2022-12-07T14:05:31;-17.67;71.32
72355;SHT30;60314;55.040;73.076;2022-12-07T14:08:03;-17.71;71.22
72355;SHT30;60314;55.040;73.076;2022-12-07T14:10:31;-17.79;71.38
72355;SHT30;60314;55.040;73.076;2022-12-07T14:12:59;-17.79;71.66
72355;SHT30;60314;55.040;73.076;2022-12-07T14:15:28;-17.71;71.50
72355;SHT30;60314;55.040;73.076;2022-12-07T14:17:58;-17.63;71.17
72355;SHT30;60314;55.040;73.076;2022-12-07T14:20:39;-17.67;70.56
72355;SHT30;60314;55.040;73.076;2022-12-07T14:23:25;-17.65;70.64
72355;SHT30;60314;55.040;73.076;2022-12-07T14:25:53;-17.63;70.95
72355;SHT30;60314;55.040;73.076;2022-12-07T14:28:36;-17.70;70.80
72355;SHT30;60314;55.040;73.076;2022-12-07T14:31:12;-17.67;71.00
72355;SHT30;60314;55.040;73.076;2022-12-07T14:33:44;-17.62;70.69
72355;SHT30;60314;55.040;73.076;2022-12-07T14:36:19;-17.49;70.53
72355;SHT30;60314;55.040;73.076;2022-12-07T14:38:45;-17.40;70.33
72355;SHT30;60314;55.040;73.076;2022-12-07T14:41:21;-17.35;70.42
72355;SHT30;60314;55.040;73.076;2022-12-07T14:44:13;-17.43;70.20
72355;SHT30;60314;55.040;73.076;2022-12-07T14:46:39;-17.40;70.62
72355;SHT30;60314;55.040;73.076;2022-12-07T14:49:06;-17.49;70.70
72355;SHT30;60314;55.040;73.076;2022-12-07T14:51:44;-17.49;70.95
72355;SHT30;60314;55.040;73.076;2022-12-07T14:54:18;-17.40;70.57
72355;SHT30;60314;55.040;73.076;2022-12-07T14:56:46;-17.46;70.30
72355;SHT30;60314;55.040;73.076;2022-12-07T14:59:16;-17.49;70.11
72355;SHT30;60314;55.040;73.076;2022-12-07T15:01:42;-17.55;69.77
72355;SHT30;60314;55.040;73.076;2022-12-07T15:04:09;-17.59;69.33
72355;SHT30;60314;55.040;73.076;2022-12-07T15:06:36;-17.76;68.39
72355;SHT30;60314;55.040;73.076;2022-12-07T15:09:02;-17.88;69.01
72355;SHT30;60314;55.040;73.076;2022-12-07T15:11:29;-17.93;69.20
72355;SHT30;60314;55.040;73.076;2022-12-07T15:14:01;-18.12;68.93
72355;SHT30;60314;55.040;73.076;2022-12-07T15:16:42;-18.28;69.45
72355;SHT30;60314;55.040;73.076;2022-12-07T15:19:22;-18.41;69.81
72355;SHT30;60314;55.040;73.076;2022-12-07T15:21:57;-18.41;69.91
72355;SHT30;60314;55.040;73.076;2022-12-07T15:24:25;-18.52;69.78
72355;SHT30;60314;55.040;73.076;2022-12-07T15:26:52;-18.64;70.01
72355;SHT30;60314;55.040;73.076;2022-12-07T15:29:20;-18.67;70.64
72355;SHT30;60314;55.040;73.076;2022-12-07T15:31:48;-18.64;70.81
72355;SHT30;60314;55.040;73.076;2022-12-07T15:34:15;-18.62;70.83
72355;SHT30;60314;55.040;73.076;2022-12-07T15:36:42;-18.59;70.60
72355;SHT30;60314;55.040;73.076;2022-12-07T15:39:09;-18.56;70.51
72355;SHT30;60314;55.040;73.076;2022-12-07T15:41:35;-18.63;70.53
72355;SHT30;60314;55.040;73.076;2022-12-07T15:44:02;-18.64;70.61
72355;SHT30;60314;55.040;73.076;2022-12-07T15:46:47;-18.70;70.46
72355;SHT30;60314;55.040;73.076;2022-12-07T15:49:16;-18.70;70.32
72355;SHT30;60314;55.040;73.076;2022-12-07T15:51:47;-18.72;69.84
72355;SHT30;60314;55.040;73.076;2022-12-07T15:54:26;-18.69;69.27
72355;SHT30;60314;55.040;73.076;2022-12-07T15:56:54;-18.70;69.01
72355;SHT30;60314;55.040;73.076;2022-12-07T15:59:22;-18.83;67.92
72355;SHT30;60314;55.040;73.076;2022-12-07T16:01:54;-18.93;67.50
72355;SHT30;60314;55.040;73.076;2022-12-07T16:04:21;-18.93;67.89
72355;SHT30;60314;55.040;73.076;2022-12-07T16:06:47;-18.91;67.52
72355;SHT30;60314;55.040;73.076;2022-12-07T16:09:13;-18.87;67.43
72355;SHT30;60314;55.040;73.076;2022-12-07T16:11:45;-18.94;66.34
72355;SHT30;60314;55.040;73.076;2022-12-07T16:14:12;-19.05;67.45
72355;SHT30;60314;55.040;73.076;2022-12-07T16:16:39;-19.12;68.72
72355;SHT30;60314;55.040;73.076;2022-12-07T16:19:06;-19.14;69.20
72355;SHT30;60314;55.040;73.076;2022-12-07T16:21:33;-19.16;69.45
72355;SHT30;60314;55.040;73.076;2022-12-07T16:24:12;-19.21;69.21
72355;SHT30;60314;55.040;73.076;2022-12-07T16:26:41;-19.25;67.96
72355;SHT30;60314;55.040;73.076;2022-12-07T16:29:11;-19.28;67.53
72355;SHT30;60314;55.040;73.076;2022-12-07T16:31:38;-19.29;68.01
72355;SHT30;60314;55.040;73.076;2022-12-07T16:34:04;-19.31;68.29
72355;SHT30;60314;55.040;73.076;2022-12-07T16:36:31;-19.31;68.72
72355;SHT30;60314;55.040;73.076;2022-12-07T16:38:59;-19.26;68.59
72355;SHT30;60314;55.040;73.076;2022-12-07T16:41:31;-19.29;68.08
72355;SHT30;60314;55.040;73.076;2022-12-07T16:44:02;-19.36;68.17
72355;SHT30;60314;55.040;73.076;2022-12-07T16:46:31;-19.42;68.46
72355;SHT30;60314;55.040;73.076;2022-12-07T16:49:11;-19.48;68.94
72355;SHT30;60314;55.040;73.076;2022-12-07T16:51:38;-19.51;69.21
72355;SHT30;60314;55.040;73.076;2022-12-07T16:54:05;-19.54;69.80
72355;SHT30;60314;55.040;73.076;2022-12-07T16:56:31;-19.48;70.02
72355;SHT30;60314;55.040;73.076;2022-12-07T16:58:58;-19.48;69.98
72355;SHT30;60314;55.040;73.076;2022-12-07T17:01:26;-19.49;69.98
72355;SHT30;60314;55.040;73.076;2022-12-07T17:04:00;-19.49;70.03
72355;SHT30;60314;55.040;73.076;2022-12-07T17:06:31;-19.51;70.38
72355;SHT30;60314;55.040;73.076;2022-12-07T17:08:57;-19.43;70.49
72355;SHT30;60314;55.040;73.076;2022-12-07T17:11:28;-19.35;70.29
72355;SHT30;60314;55.040;73.076;2022-12-07T17:14:28;-19.28;70.15
72355;SHT30;60314;55.040;73.076;2022-12-07T17:17:26;-19.28;70.11
72355;SHT30;60314;55.040;73.076;2022-12-07T17:20:20;-19.32;70.43
72355;SHT30;60314;55.040;73.076;2022-12-07T17:22:47;-19.31;70.64
72355;SHT30;60314;55.040;73.076;2022-12-07T17:25:20;-19.29;70.43
72355;SHT30;60314;55.040;73.076;2022-12-07T17:27:55;-19.29;70.38
72355;SHT30;60314;55.040;73.076;2022-12-07T17:30:31;-19.28;70.23
72355;SHT30;60314;55.040;73.076;2022-12-07T17:32:57;-19.24;70.07
72355;SHT30;60314;55.040;73.076;2022-12-07T17:35:24;-19.29;69.86
72355;SHT30;60314;55.040;73.076;2022-12-07T17:37:51;-19.35;69.89
72355;SHT30;60314;55.040;73.076;2022-12-07T17:40:17;-19.35;69.92